createdAt,value
2023-05-10T00:00:17.625Z,98358.03
2023-05-10T00:02:47.276Z,98350.47
2023-05-10T00:05:15.253Z,98353.41
2023-05-10T00:07:45.834Z,98348.19
2023-05-10T00:10:14.405Z,98338.41
2023-05-10T00:12:42.599Z,98349.19
2023-05-10T00:15:11.474Z,98344.41
2023-05-10T00:17:39.444Z,98329.16
2023-05-10T00:20:09.875Z,98345.97
2023-05-10T00:22:37.819Z,98344.97
2023-05-10T00:25:07.199Z,98339.25
2023-05-10T00:27:35.168Z,98344.88
2023-05-10T00:30:03.271Z,98348.50
2023-05-10T00:32:31.610Z,98335.34
2023-05-10T00:34:59.592Z,98336.19
2023-05-10T00:37:28.929Z,98340.69
2023-05-10T00:39:56.878Z,98349.50
2023-05-10T00:42:24.764Z,98339.41
2023-05-10T00:44:52.838Z,98334.78
2023-05-10T00:47:20.952Z,98338.16
2023-05-10T00:49:48.970Z,98343.91
2023-05-10T00:52:17.028Z,98348.50
2023-05-10T00:54:46.571Z,98339.72
2023-05-10T00:57:14.530Z,98350.78
2023-05-10T00:59:42.550Z,98358.53
2023-05-10T01:02:10.826Z,98354.44
2023-05-10T01:04:40.451Z,98345.00
2023-05-10T01:07:08.804Z,98339.00
2023-05-10T01:09:36.980Z,98344.91
2023-05-10T01:12:08.032Z,98345.00
2023-05-10T01:14:38.301Z,98350.50
2023-05-10T01:17:08.133Z,98343.63
2023-05-10T01:19:38.694Z,98344.06
2023-05-10T01:22:43.374Z,98348.94
2023-05-10T01:25:23.886Z,98355.56
2023-05-10T01:28:24.123Z,98354.84
2023-05-10T01:31:20.681Z,98351.63
2023-05-10T01:33:57.035Z,98345.00
2023-05-10T01:36:33.294Z,98347.28
2023-05-10T01:39:07.590Z,98338.84
2023-05-10T01:41:42.954Z,98342.34
2023-05-10T01:44:22.684Z,98314.22
2023-05-10T01:46:55.621Z,98345.19
2023-05-10T01:49:28.542Z,98345.19
2023-05-10T01:52:01.769Z,98343.91
2023-05-10T01:54:31.257Z,98333.41
2023-05-10T01:57:05.248Z,98352.91
2023-05-10T01:59:40.295Z,98354.06
2023-05-10T02:02:09.292Z,98361.34
2023-05-10T02:04:40.708Z,98361.06
2023-05-10T02:07:09.457Z,98369.34
2023-05-10T02:09:39.143Z,98353.94
2023-05-10T02:12:09.463Z,98363.88
2023-05-10T02:14:39.157Z,98371.47
2023-05-10T02:17:09.904Z,98347.78
2023-05-10T02:19:42.767Z,98367.38
2023-05-10T02:22:11.976Z,98369.78
2023-05-10T02:24:42.007Z,98369.34
2023-05-10T02:27:11.939Z,98375.56
2023-05-10T02:29:41.080Z,98378.06
2023-05-10T02:32:12.098Z,98375.69
2023-05-10T02:34:43.151Z,98378.94
2023-05-10T02:37:11.898Z,98378.63
2023-05-10T02:39:44.747Z,98390.25
2023-05-10T02:42:18.078Z,98342.75
2023-05-10T02:44:50.078Z,98320.59
2023-05-10T02:47:18.222Z,98391.13
2023-05-10T02:49:48.172Z,98395.06
2023-05-10T02:52:21.633Z,98392.69
2023-05-10T02:54:54.515Z,98366.59
2023-05-10T02:57:36.115Z,98387.78
2023-05-10T03:00:04.767Z,98387.78
2023-05-10T03:02:33.033Z,98394.91
2023-05-10T03:05:02.590Z,98392.69
2023-05-10T03:07:30.952Z,98391.97
2023-05-10T03:09:59.085Z,98390.88
2023-05-10T03:12:42.594Z,98390.00
2023-05-10T03:15:16.010Z,98386.50
2023-05-10T03:17:58.244Z,98386.94
2023-05-10T03:20:31.472Z,98385.53
2023-05-10T03:23:06.487Z,98388.91
2023-05-10T03:25:35.486Z,98388.78
2023-05-10T03:28:06.618Z,98390.03
2023-05-10T03:30:35.935Z,98378.13
2023-05-10T03:33:07.346Z,98398.75
2023-05-10T03:35:36.909Z,98391.03
2023-05-10T03:38:04.857Z,98392.16
2023-05-10T03:40:33.362Z,98404.50
2023-05-10T03:43:01.303Z,98377.00
2023-05-10T03:45:29.466Z,98399.03
2023-05-10T03:47:57.524Z,98398.88
2023-05-10T03:50:25.671Z,98391.88
2023-05-10T03:52:55.024Z,98391.28
2023-05-10T03:55:23.520Z,98387.66
2023-05-10T03:57:51.626Z,98371.38
2023-05-10T04:00:19.794Z,98382.75
2023-05-10T04:02:47.877Z,98380.63
2023-05-10T04:05:15.882Z,98377.97
2023-05-10T04:07:45.351Z,98365.47
2023-05-10T04:10:15.043Z,98364.22
2023-05-10T04:12:43.115Z,98375.59
2023-05-10T04:15:11.672Z,98385.56
2023-05-10T04:17:39.664Z,98386.25
2023-05-10T04:20:09.396Z,98392.28
2023-05-10T04:22:37.339Z,98393.13
2023-05-10T04:25:05.802Z,98403.09
2023-05-10T04:27:35.225Z,98405.22
2023-05-10T04:30:04.408Z,98400.84
2023-05-10T04:32:32.592Z,98408.00
2023-05-10T04:35:00.593Z,98400.84
2023-05-10T04:37:28.574Z,98401.56
2023-05-10T04:39:56.537Z,98403.50
2023-05-10T04:42:24.470Z,98397.34
2023-05-10T04:44:54.086Z,98419.38
2023-05-10T04:47:22.059Z,98411.50
2023-05-10T04:49:50.015Z,98421.22
2023-05-10T04:52:18.951Z,98410.38
2023-05-10T04:54:46.935Z,98422.03
2023-05-10T04:57:14.870Z,98424.00
2023-05-10T04:59:43.565Z,98437.91
2023-05-10T05:02:12.862Z,98440.00
2023-05-10T05:04:40.818Z,98432.84
2023-05-10T05:07:08.748Z,98433.13
2023-05-10T05:09:36.757Z,98430.31
2023-05-10T05:12:05.263Z,98390.59
2023-05-10T05:14:33.220Z,98432.84
2023-05-10T05:17:01.152Z,98437.91
2023-05-10T05:19:30.436Z,98433.13
2023-05-10T05:21:58.492Z,98434.78
2023-05-10T05:24:26.510Z,98439.84
2023-05-10T05:26:54.465Z,98431.84
2023-05-10T05:29:22.405Z,98434.38
2023-05-10T05:31:50.370Z,98447.41
2023-05-10T05:34:18.284Z,98443.78
2023-05-10T05:36:47.605Z,98454.44
2023-05-10T05:39:15.654Z,98452.91
2023-05-10T05:41:43.648Z,98456.13
2023-05-10T05:44:11.650Z,98458.38
2023-05-10T05:46:39.868Z,98460.59
2023-05-10T05:49:07.787Z,98468.59
2023-05-10T05:51:36.656Z,98467.72
2023-05-10T05:54:05.932Z,98469.25
2023-05-10T05:56:33.895Z,98470.97
2023-05-10T05:59:01.836Z,98473.94
2023-05-10T06:01:29.810Z,98473.03
2023-05-10T06:03:57.940Z,98482.34
2023-05-10T06:06:26.023Z,98477.31
2023-05-10T06:08:53.960Z,98482.47
2023-05-10T06:11:23.926Z,98488.09
2023-05-10T06:13:52.099Z,98492.72
2023-05-10T06:16:19.989Z,98490.34
2023-05-10T06:18:47.922Z,98494.16
2023-05-10T06:21:15.923Z,98472.00
2023-05-10T06:23:43.963Z,98499.09
2023-05-10T06:26:12.233Z,98499.63
2023-05-10T06:28:41.884Z,98503.72
2023-05-10T06:31:09.839Z,98504.81
2023-05-10T06:33:37.770Z,98499.06
2023-05-10T06:36:06.108Z,98511.97
2023-05-10T06:38:34.403Z,98500.75
2023-05-10T06:41:02.564Z,98497.50
2023-05-10T06:43:30.768Z,98495.28
2023-05-10T06:46:00.176Z,98500.59
2023-05-10T06:48:28.163Z,98505.25
2023-05-10T06:50:56.097Z,98513.97
2023-05-10T06:53:23.998Z,98508.34
2023-05-10T06:55:52.416Z,98509.88
2023-05-10T06:58:20.309Z,98517.34
2023-05-10T07:00:48.398Z,98517.19
2023-05-10T07:03:18.095Z,98508.34
2023-05-10T07:05:46.041Z,98513.50
2023-05-10T07:08:14.463Z,98523.03
2023-05-10T07:10:42.422Z,98520.53
2023-05-10T07:13:10.932Z,98521.50
2023-05-10T07:15:38.930Z,98522.50
2023-05-10T07:18:07.646Z,98528.53
2023-05-10T07:20:37.140Z,98519.13
2023-05-10T07:23:05.094Z,98524.03
2023-05-10T07:25:33.107Z,98535.94
2023-05-10T07:28:01.042Z,98533.72
2023-05-10T07:30:29.133Z,98527.25
2023-05-10T07:32:57.135Z,98521.19
2023-05-10T07:35:25.137Z,98499.72
2023-05-10T07:37:54.470Z,98529.03
2023-05-10T07:40:22.640Z,98531.28
2023-05-10T07:42:50.614Z,98526.84
2023-05-10T07:45:18.832Z,98538.19
2023-05-10T07:47:46.857Z,98532.09
2023-05-10T07:50:15.139Z,98542.03
2023-05-10T07:52:43.331Z,98542.97
2023-05-10T07:55:13.250Z,98517.09
2023-05-10T07:57:41.384Z,98534.25
2023-05-10T08:00:10.567Z,98535.88
2023-05-10T08:02:38.634Z,98535.25
2023-05-10T08:05:07.578Z,98545.19
2023-05-10T08:07:35.633Z,98542.63
2023-05-10T08:10:03.621Z,98536.97
2023-05-10T08:12:32.987Z,98540.28
2023-05-10T08:15:01.087Z,98542.03
2023-05-10T08:17:29.064Z,98538.44
2023-05-10T08:19:57.107Z,98543.13
2023-05-10T08:22:25.012Z,98539.53
2023-05-10T08:24:52.964Z,98543.81
2023-05-10T08:27:20.898Z,98538.78
2023-05-10T08:29:50.757Z,98560.97
2023-05-10T08:32:18.918Z,98556.16
2023-05-10T08:34:46.862Z,98544.69
2023-05-10T08:37:14.854Z,98553.22
2023-05-10T08:39:42.773Z,98553.47
2023-05-10T08:42:11.695Z,98558.28
2023-05-10T08:44:39.712Z,98562.97
2023-05-10T08:47:10.692Z,98558.13
2023-05-10T08:49:39.779Z,98559.91
2023-05-10T08:52:09.342Z,98539.63
2023-05-10T08:54:37.583Z,98556.97
2023-05-10T08:57:05.936Z,98556.81
2023-05-10T08:59:34.259Z,98556.03
2023-05-10T09:02:04.298Z,98561.75
2023-05-10T09:04:33.884Z,98534.97
2023-05-10T09:07:02.250Z,98554.19
2023-05-10T09:09:30.913Z,98561.66
2023-05-10T09:11:59.093Z,98565.31
2023-05-10T09:14:27.529Z,98571.50
2023-05-10T09:16:56.686Z,98569.69
2023-05-10T09:19:24.697Z,98569.25
2023-05-10T09:21:54.046Z,98581.22
2023-05-10T09:24:27.104Z,98574.72
2023-05-10T09:26:55.086Z,98582.84
2023-05-10T09:29:23.037Z,98587.50
2023-05-10T09:31:53.463Z,98580.75
2023-05-10T09:34:23.018Z,98588.31
2023-05-10T09:36:57.335Z,98578.56
2023-05-10T09:39:33.805Z,98581.84
2023-05-10T09:42:04.798Z,98577.59
2023-05-10T09:44:33.421Z,98579.88
2023-05-10T09:47:01.466Z,98565.44
2023-05-10T09:49:29.644Z,98578.06
2023-05-10T09:52:09.176Z,98576.00
2023-05-10T09:54:37.420Z,98580.81
2023-05-10T09:57:06.086Z,98555.03
2023-05-10T09:59:36.325Z,98577.06
2023-05-10T10:02:04.908Z,98564.34
2023-05-10T10:04:33.196Z,98579.34
2023-05-10T10:07:02.766Z,98580.19
2023-05-10T10:09:32.718Z,98564.88
2023-05-10T10:12:01.638Z,98578.81
2023-05-10T10:14:30.573Z,98579.25
2023-05-10T10:19:30.276Z,98572.16
2023-05-10T10:21:58.298Z,98574.66
2023-05-10T10:24:26.308Z,98578.84
2023-05-10T10:27:00.649Z,98579.13
2023-05-10T10:29:38.467Z,98580.88
2023-05-10T10:32:14.303Z,98580.22
2023-05-10T10:34:42.749Z,98579.84
2023-05-10T10:37:10.749Z,98568.47
2023-05-10T10:39:38.711Z,98585.13
2023-05-10T10:42:08.084Z,98577.06
2023-05-10T10:44:39.260Z,98584.72
2023-05-10T10:47:30.875Z,98581.19
2023-05-10T10:50:06.362Z,98574.00
2023-05-10T10:52:35.895Z,98578.03
2023-05-10T10:55:07.709Z,98572.34
2023-05-10T10:57:46.579Z,98561.44
2023-05-10T11:00:25.780Z,98564.78
2023-05-10T11:02:55.742Z,98532.72
2023-05-10T11:05:38.668Z,98566.97
2023-05-10T11:08:13.195Z,98565.84
2023-05-10T11:10:42.165Z,98569.28
2023-05-10T11:13:12.313Z,98567.97
2023-05-10T11:15:41.346Z,98565.94
2023-05-10T11:18:23.565Z,98565.94
2023-05-10T11:20:53.505Z,98543.97
2023-05-10T11:23:22.200Z,98571.75
2023-05-10T11:25:51.392Z,98559.06
2023-05-10T11:28:21.411Z,98558.19
2023-05-10T11:30:49.597Z,98567.94
2023-05-10T11:33:20.527Z,98563.91
2023-05-10T11:35:49.000Z,98502.41
2023-05-10T11:38:17.050Z,98564.09
2023-05-10T11:40:45.700Z,98572.47
2023-05-10T11:43:13.703Z,98574.34
2023-05-10T11:45:43.795Z,98566.16
2023-05-10T11:48:11.798Z,98556.00
2023-05-10T11:50:39.891Z,98568.63
2023-05-10T11:53:07.806Z,98575.00
2023-05-10T11:55:36.291Z,98563.69
2023-05-10T11:58:04.843Z,98538.47
2023-05-10T12:00:33.687Z,98571.28
2023-05-10T12:03:04.287Z,98563.03
2023-05-10T12:05:37.930Z,98550.47
2023-05-10T12:08:15.131Z,98554.59
2023-05-10T12:10:43.438Z,98561.44
2023-05-10T12:13:16.422Z,98567.06
2023-05-10T12:15:45.091Z,98584.00
2023-05-10T12:18:15.309Z,98584.69
2023-05-10T12:20:43.568Z,98596.50
2023-05-10T12:23:12.183Z,98593.09
2023-05-10T12:25:40.872Z,98590.38
2023-05-10T12:28:10.801Z,98594.47
2023-05-10T12:30:39.821Z,98589.59
2023-05-10T12:33:11.209Z,98594.50
2023-05-10T12:35:51.235Z,98603.28
2023-05-10T12:38:30.645Z,98598.31
2023-05-10T12:41:00.340Z,98595.03
2023-05-10T12:43:28.768Z,98599.16
2023-05-10T12:45:56.869Z,98598.84
2023-05-10T12:48:24.999Z,98589.31
2023-05-10T12:50:54.354Z,98596.31
2023-05-10T12:53:22.429Z,98601.69
2023-05-10T12:55:50.469Z,98604.09
2023-05-10T12:58:34.357Z,98599.63
2023-05-10T13:01:03.990Z,98587.47
2023-05-10T13:03:32.178Z,98551.88
2023-05-10T13:06:01.496Z,98577.13
2023-05-10T13:08:34.479Z,98577.41
2023-05-10T13:11:02.903Z,98589.69
2023-05-10T13:13:31.021Z,98574.22
2023-05-10T13:15:59.002Z,98557.31
2023-05-10T13:18:27.681Z,98583.44
2023-05-10T13:20:56.803Z,98574.81
2023-05-10T13:23:26.158Z,98583.53
2023-05-10T13:25:54.125Z,98592.84
2023-05-10T13:28:22.131Z,98582.06
2023-05-10T13:30:50.102Z,98591.50
2023-05-10T13:33:18.105Z,98592.47
2023-05-10T13:35:46.323Z,98586.00
2023-05-10T13:38:14.845Z,98546.06
2023-05-10T13:40:44.273Z,98593.53
2023-05-10T13:43:12.206Z,98586.56
2023-05-10T13:45:40.152Z,98586.44
2023-05-10T13:48:08.154Z,98594.75
2023-05-10T13:50:36.179Z,98583.97
2023-05-10T13:53:04.130Z,98593.38
2023-05-10T13:55:32.098Z,98594.34
2023-05-10T13:58:01.452Z,98584.44
2023-05-10T14:00:29.457Z,98584.53
2023-05-10T14:02:57.610Z,98585.25
2023-05-10T14:05:26.699Z,98574.22
2023-05-10T14:07:54.891Z,98576.28
2023-05-10T14:10:22.900Z,98570.44
2023-05-10T14:12:51.897Z,98574.94
2023-05-10T14:15:21.291Z,98583.22
2023-05-10T14:17:49.388Z,98582.38
2023-05-10T14:20:17.498Z,98575.22
2023-05-10T14:22:45.465Z,98568.94
2023-05-10T14:25:13.793Z,98574.50
2023-05-10T14:27:41.744Z,98569.69
2023-05-10T14:30:10.714Z,98565.84
2023-05-10T14:32:40.101Z,98561.28
2023-05-10T14:35:10.712Z,98561.38
2023-05-10T14:37:40.361Z,98558.97
2023-05-10T14:40:10.326Z,98567.00
2023-05-10T14:42:38.310Z,98554.00
2023-05-10T14:45:07.363Z,98555.84
2023-05-10T14:47:35.369Z,98558.06
2023-05-10T14:50:04.948Z,98551.84
2023-05-10T14:52:34.276Z,98539.31
2023-05-10T14:55:02.517Z,98545.97
2023-05-10T14:57:33.796Z,98536.88
2023-05-10T15:00:03.042Z,98555.75
2023-05-10T15:02:31.495Z,98549.78
2023-05-10T15:04:59.699Z,98559.59
2023-05-10T15:07:29.543Z,98548.41
2023-05-10T15:09:57.540Z,98549.13
2023-05-10T15:12:25.471Z,98528.25
2023-05-10T15:14:53.421Z,98469.03
2023-05-10T15:17:21.331Z,98545.97
2023-05-10T15:19:50.252Z,98547.19
2023-05-10T15:22:18.164Z,98557.41
2023-05-10T15:24:47.546Z,98560.84
2023-05-10T15:27:15.550Z,98562.94
2023-05-10T15:29:43.536Z,98565.53
2023-05-10T15:32:11.513Z,98547.63
2023-05-10T15:34:39.444Z,98538.34
2023-05-10T15:37:07.413Z,98573.03
2023-05-10T15:39:35.330Z,98567.88
2023-05-10T15:42:05.113Z,98572.91
2023-05-10T15:44:34.624Z,98570.88
2023-05-10T15:47:02.745Z,98572.47
2023-05-10T15:49:30.774Z,98579.53
2023-05-10T15:51:58.745Z,98572.50
2023-05-10T15:54:26.906Z,98567.63
2023-05-10T15:56:55.296Z,98590.78
2023-05-10T15:59:24.646Z,98585.13
2023-05-10T16:01:53.013Z,98597.19
2023-05-10T16:04:21.088Z,98599.88
2023-05-10T16:06:49.048Z,98598.22
2023-05-10T16:09:17.189Z,98601.47
2023-05-10T16:11:46.450Z,98598.41
2023-05-10T16:14:14.475Z,98602.31
2023-05-10T16:16:44.430Z,98596.94
2023-05-10T16:19:12.364Z,98593.03
2023-05-10T16:21:40.318Z,98594.88
2023-05-10T16:24:08.511Z,98601.41
2023-05-10T16:26:40.993Z,98598.31
2023-05-10T16:29:09.319Z,98600.13
2023-05-10T16:31:37.377Z,98615.00
2023-05-10T16:34:06.804Z,98593.38
2023-05-10T16:36:35.326Z,98599.88
2023-05-10T16:39:03.978Z,98602.25
2023-05-10T16:41:34.499Z,98599.34
2023-05-10T16:44:02.473Z,98583.59
2023-05-10T16:46:30.494Z,98612.28
2023-05-10T16:48:59.870Z,98603.94
2023-05-10T16:51:29.395Z,98596.06
2023-05-10T16:53:57.369Z,98599.53
2023-05-10T16:56:25.387Z,98599.75
2023-05-10T16:58:54.095Z,98602.84
2023-05-10T17:01:24.305Z,98599.88
2023-05-10T17:03:53.769Z,98597.19
2023-05-10T17:06:21.948Z,98603.53
2023-05-10T17:08:51.788Z,98603.34
2023-05-10T17:11:21.955Z,98601.69
2023-05-10T17:13:49.934Z,98618.59
2023-05-10T17:16:17.988Z,98603.69
2023-05-10T17:18:46.642Z,98621.66
2023-05-10T17:21:14.597Z,98615.28
2023-05-10T17:23:42.560Z,98615.31
2023-05-10T17:26:11.939Z,98613.94
2023-05-10T17:28:39.931Z,98612.78
2023-05-10T17:31:08.361Z,98610.22
2023-05-10T17:33:36.308Z,98608.91
2023-05-10T17:36:04.279Z,98606.81
2023-05-10T17:38:32.325Z,98609.31
2023-05-10T17:41:00.246Z,98617.31
2023-05-10T17:43:29.616Z,98610.31
2023-05-10T17:45:57.561Z,98618.41
2023-05-10T17:48:25.573Z,98599.53
2023-05-10T17:50:53.567Z,98621.25
2023-05-10T17:53:21.563Z,98619.50
2023-05-10T17:55:49.748Z,98621.88
2023-05-10T17:58:17.719Z,98617.34
2023-05-10T18:00:47.717Z,98615.69
2023-05-10T18:03:15.705Z,98607.28
2023-05-10T18:05:43.778Z,98625.78
2023-05-10T18:08:11.759Z,98633.34
2023-05-10T18:10:41.315Z,98626.47
2023-05-10T18:13:09.640Z,98621.91
2023-05-10T18:15:37.663Z,98623.16
2023-05-10T18:18:07.235Z,98617.13
2023-05-10T18:20:35.186Z,98624.66
2023-05-10T18:23:03.190Z,98632.72
2023-05-10T18:25:31.237Z,98635.41
2023-05-10T18:27:59.178Z,98639.22
2023-05-10T18:30:27.173Z,98639.47
2023-05-10T18:32:55.395Z,98640.47
2023-05-10T18:35:24.764Z,98648.25
2023-05-10T18:37:53.219Z,98634.34
2023-05-10T18:40:21.289Z,98647.69
2023-05-10T18:42:50.229Z,98636.00
2023-05-10T18:45:18.488Z,98645.97
2023-05-10T18:47:46.766Z,98647.00
2023-05-10T18:50:17.073Z,98648.66
2023-05-10T18:52:46.646Z,98654.00
2023-05-10T18:55:14.836Z,98646.41
2023-05-10T18:57:43.000Z,98647.94
2023-05-10T19:00:12.800Z,98656.66
2023-05-10T19:02:41.311Z,98657.66
2023-05-10T19:05:10.305Z,98643.59
2023-05-10T19:07:38.408Z,98659.44
2023-05-10T19:10:08.838Z,98656.78
2023-05-10T19:12:37.575Z,98673.38
2023-05-10T19:15:06.313Z,98669.44
2023-05-10T19:17:35.382Z,98673.09
2023-05-10T19:20:04.169Z,98674.50
2023-05-10T19:22:45.380Z,98671.69
2023-05-10T19:25:21.503Z,98666.19
2023-05-10T19:27:49.543Z,98676.88
2023-05-10T19:30:17.490Z,98672.66
2023-05-10T19:32:45.519Z,98681.56
2023-05-10T19:35:15.070Z,98674.63
2023-05-10T19:37:46.069Z,98678.00
2023-05-10T19:40:15.681Z,98685.06
2023-05-10T19:42:45.117Z,98668.59
2023-05-10T19:45:15.806Z,98679.53
2023-05-10T19:47:44.273Z,98686.56
2023-05-10T19:50:13.931Z,98683.47
2023-05-10T19:52:41.948Z,98676.03
2023-05-10T19:55:10.167Z,98677.84
2023-05-10T19:57:38.191Z,98677.38
2023-05-10T20:00:09.024Z,98688.38
2023-05-10T20:02:37.005Z,98685.53
2023-05-10T20:05:05.273Z,98686.91
2023-05-10T20:07:33.220Z,98686.09
2023-05-10T20:10:01.235Z,98656.66
2023-05-10T20:12:29.213Z,98667.53
2023-05-10T20:14:57.261Z,98677.50
2023-05-10T20:17:26.816Z,98689.19
2023-05-10T20:19:54.869Z,98690.31
2023-05-10T20:22:22.785Z,98686.63
2023-05-10T20:24:50.780Z,98690.50
2023-05-10T20:27:21.089Z,98683.25
2023-05-10T20:29:49.070Z,98677.88
2023-05-10T20:32:17.055Z,98660.41
2023-05-10T20:34:46.666Z,98687.13
2023-05-10T20:37:14.636Z,98689.06
2023-05-10T20:39:42.619Z,98683.63
2023-05-10T20:42:10.964Z,98658.81
2023-05-10T20:44:38.930Z,98685.97
2023-05-10T20:47:07.094Z,98694.50
2023-05-10T20:49:36.533Z,98690.47
2023-05-10T20:52:06.469Z,98693.13
2023-05-10T20:54:34.466Z,98694.69
2023-05-10T20:57:02.879Z,98683.38
2023-05-10T20:59:30.858Z,98646.88
2023-05-10T21:01:59.799Z,98688.91
2023-05-10T21:04:28.621Z,98688.53
2023-05-10T21:06:57.393Z,98691.00
2023-05-10T21:09:27.532Z,98695.22
2023-05-10T21:11:56.266Z,98634.56
2023-05-10T21:14:24.973Z,98693.19
2023-05-10T21:16:54.795Z,98692.91
2023-05-10T21:19:23.449Z,98686.31
2023-05-10T21:21:52.446Z,98680.84
2023-05-10T21:24:21.154Z,98678.47
2023-05-10T21:26:51.354Z,98688.06
2023-05-10T21:29:20.210Z,98676.72
2023-05-10T21:31:49.072Z,98677.81
2023-05-10T21:34:18.370Z,98698.63
2023-05-10T21:36:48.746Z,98694.69
2023-05-10T21:39:17.404Z,98691.81
2023-05-10T21:41:46.094Z,98687.31
2023-05-10T21:44:16.350Z,98685.88
2023-05-10T21:46:45.600Z,98688.38
2023-05-10T21:49:14.266Z,98692.50
2023-05-10T21:51:42.941Z,98691.53
2023-05-10T21:54:11.710Z,98689.31
2023-05-10T21:56:40.416Z,98693.75
2023-05-10T21:59:09.146Z,98692.03
2023-05-10T22:01:39.348Z,98679.44
2023-05-10T22:04:08.136Z,98695.47
2023-05-10T22:06:36.871Z,98695.84
2023-05-10T22:09:05.928Z,98696.47
2023-05-10T22:11:34.323Z,98687.03
2023-05-10T22:14:02.294Z,98692.47
2023-05-10T22:16:30.274Z,98691.63
2023-05-10T22:18:59.718Z,98691.06
2023-05-10T22:21:27.717Z,98690.91
2023-05-10T22:23:55.691Z,98698.50
2023-05-10T22:26:23.654Z,98690.06
2023-05-10T22:28:51.565Z,98686.34
2023-05-10T22:31:20.167Z,98691.28
2023-05-10T22:33:49.073Z,98688.13
2023-05-10T22:36:19.225Z,98694.69
2023-05-10T22:38:47.933Z,98688.00
2023-05-10T22:41:16.698Z,98682.09
2023-05-10T22:43:45.952Z,98693.47
2023-05-10T22:46:14.799Z,98690.97
2023-05-10T22:48:44.799Z,98688.72
2023-05-10T22:51:13.490Z,98693.19
2023-05-10T22:53:43.618Z,98689.09
2023-05-10T22:56:12.404Z,98687.03
2023-05-10T22:58:41.142Z,98680.66
2023-05-10T23:01:10.057Z,98688.50
2023-05-10T23:03:39.345Z,98684.53
2023-05-10T23:06:08.858Z,98685.25
2023-05-10T23:08:38.378Z,98691.44
2023-05-10T23:11:09.283Z,98689.34
2023-05-10T23:13:38.323Z,98687.84
2023-05-10T23:16:08.330Z,98692.75
2023-05-10T23:18:37.354Z,98658.50
2023-05-10T23:21:06.421Z,98667.66
2023-05-10T23:23:37.953Z,98684.69
2023-05-10T23:26:11.034Z,98680.91
2023-05-10T23:28:40.132Z,98684.22
2023-05-10T23:31:09.081Z,98681.28
2023-05-10T23:33:37.285Z,98679.72
2023-05-10T23:36:05.439Z,98680.94
2023-05-10T23:38:33.455Z,98680.69
2023-05-10T23:41:01.524Z,98674.91
2023-05-10T23:43:31.258Z,98678.56
2023-05-10T23:45:59.807Z,98665.75
2023-05-10T23:48:27.841Z,98682.56
2023-05-10T23:50:55.842Z,98678.41
2023-05-10T23:53:23.832Z,98672.25
2023-05-10T23:55:51.800Z,98676.84
2023-05-10T23:58:19.782Z,98675.41
